sensor_id;sensor_type;location;lat;lon;timestamp;temperature;humidity
292;DHT22;23311;48.776;9.162;2024-02-26T00:00:10;7.90;95.50
292;DHT22;23311;48.776;9.162;2024-02-26T00:02:40;8.00;95.50
292;DHT22;23311;48.776;9.162;2024-02-26T00:05:09;8.00;95.50
292;DHT22;23311;48.776;9.162;2024-02-26T00:07:37;7.90;95.50
292;DHT22;23311;48.776;9.162;2024-02-26T00:10:06;7.90;95.50
292;DHT22;23311;48.776;9.162;2024-02-26T00:12:35;7.80;95.50
292;DHT22;23311;48.776;9.162;2024-02-26T00:15:04;7.80;95.50
292;DHT22;23311;48.776;9.162;2024-02-26T00:17:33;8.00;95.50
292;DHT22;23311;48.776;9.162;2024-02-26T00:20:03;8.00;95.50
292;DHT22;23311;48.776;9.162;2024-02-26T00:22:36;7.90;95.50
292;DHT22;23311;48.776;9.162;2024-02-26T00:25:05;7.80;95.50
292;DHT22;23311;48.776;9.162;2024-02-26T00:27:33;7.80;95.50
292;DHT22;23311;48.776;9.162;2024-02-26T00:30:01;7.80;95.50
292;DHT22;23311;48.776;9.162;2024-02-26T00:32:29;7.80;95.50
292;DHT22;23311;48.776;9.162;2024-02-26T00:34:57;8.00;95.50
292;DHT22;23311;48.776;9.162;2024-02-26T00:37:27;8.10;95.50
292;DHT22;23311;48.776;9.162;2024-02-26T00:39:55;8.10;95.50
292;DHT22;23311;48.776;9.162;2024-02-26T00:42:24;8.10;95.50
292;DHT22;23311;48.776;9.162;2024-02-26T00:44:52;8.00;95.50
292;DHT22;23311;48.776;9.162;2024-02-26T00:47:21;8.10;95.50
292;DHT22;23311;48.776;9.162;2024-02-26T00:49:49;8.10;95.50
292;DHT22;23311;48.776;9.162;2024-02-26T00:52:18;8.10;95.50
292;DHT22;23311;48.776;9.162;2024-02-26T00:54:47;8.10;95.50
292;DHT22;23311;48.776;9.162;2024-02-26T00:57:15;8.10;95.50
292;DHT22;23311;48.776;9.162;2024-02-26T00:59:44;8.00;95.50
292;DHT22;23311;48.776;9.162;2024-02-26T01:02:12;8.10;95.50
292;DHT22;23311;48.776;9.162;2024-02-26T01:04:40;8.20;95.50
292;DHT22;23311;48.776;9.162;2024-02-26T01:07:09;8.10;95.50
292;DHT22;23311;48.776;9.162;2024-02-26T01:09:37;8.10;95.50
292;DHT22;23311;48.776;9.162;2024-02-26T01:12:07;8.10;95.50
292;DHT22;23311;48.776;9.162;2024-02-26T01:14:35;8.20;95.50
292;DHT22;23311;48.776;9.162;2024-02-26T01:17:03;8.30;95.50
292;DHT22;23311;48.776;9.162;2024-02-26T01:19:32;8.30;95.50
292;DHT22;23311;48.776;9.162;2024-02-26T01:22:00;8.30;95.50
292;DHT22;23311;48.776;9.162;2024-02-26T01:24:29;8.10;95.50
292;DHT22;23311;48.776;9.162;2024-02-26T01:26:58;8.10;95.50
292;DHT22;23311;48.776;9.162;2024-02-26T01:29:27;8.00;95.50
292;DHT22;23311;48.776;9.162;2024-02-26T01:31:55;8.20;95.50
292;DHT22;23311;48.776;9.162;2024-02-26T01:34:24;8.20;95.50
292;DHT22;23311;48.776;9.162;2024-02-26T01:36:52;8.10;95.50
292;DHT22;23311;48.776;9.162;2024-02-26T01:39:20;8.00;95.50
292;DHT22;23311;48.776;9.162;2024-02-26T01:41:49;8.00;95.50
292;DHT22;23311;48.776;9.162;2024-02-26T01:44:17;7.90;95.50
292;DHT22;23311;48.776;9.162;2024-02-26T01:46:48;8.10;95.50
292;DHT22;23311;48.776;9.162;2024-02-26T01:49:16;8.20;95.50
292;DHT22;23311;48.776;9.162;2024-02-26T01:51:45;8.20;95.50
292;DHT22;23311;48.776;9.162;2024-02-26T01:54:14;8.10;95.50
292;DHT22;23311;48.776;9.162;2024-02-26T01:56:42;8.20;95.50
292;DHT22;23311;48.776;9.162;2024-02-26T01:59:10;8.20;95.50
292;DHT22;23311;48.776;9.162;2024-02-26T02:01:39;8.20;95.50
292;DHT22;23311;48.776;9.162;2024-02-26T02:04:14;8.10;95.50
292;DHT22;23311;48.776;9.162;2024-02-26T02:06:45;8.20;95.50
292;DHT22;23311;48.776;9.162;2024-02-26T02:09:14;8.10;95.50
292;DHT22;23311;48.776;9.162;2024-02-26T02:11:42;8.10;95.50
292;DHT22;23311;48.776;9.162;2024-02-26T02:14:11;8.10;95.50
292;DHT22;23311;48.776;9.162;2024-02-26T02:16:39;8.10;95.50
292;DHT22;23311;48.776;9.162;2024-02-26T02:19:07;8.10;95.50
292;DHT22;23311;48.776;9.162;2024-02-26T02:21:37;8.20;95.50
292;DHT22;23311;48.776;9.162;2024-02-26T02:24:06;8.20;95.50
292;DHT22;23311;48.776;9.162;2024-02-26T02:26:34;8.20;95.50
292;DHT22;23311;48.776;9.162;2024-02-26T02:29:02;8.20;95.50
292;DHT22;23311;48.776;9.162;2024-02-26T02:31:31;8.20;95.50
292;DHT22;23311;48.776;9.162;2024-02-26T02:33:59;8.30;95.50
292;DHT22;23311;48.776;9.162;2024-02-26T02:36:28;8.30;95.50
292;DHT22;23311;48.776;9.162;2024-02-26T02:38:58;8.20;95.50
292;DHT22;23311;48.776;9.162;2024-02-26T02:41:26;8.20;95.50
292;DHT22;23311;48.776;9.162;2024-02-26T02:43:57;8.30;95.50
292;DHT22;23311;48.776;9.162;2024-02-26T02:46:25;8.40;95.50
292;DHT22;23311;48.776;9.162;2024-02-26T02:48:53;8.30;95.50
292;DHT22;23311;48.776;9.162;2024-02-26T02:51:22;8.40;95.50
292;DHT22;23311;48.776;9.162;2024-02-26T02:53:50;8.50;95.50
292;DHT22;23311;48.776;9.162;2024-02-26T02:56:19;8.50;95.50
292;DHT22;23311;48.776;9.162;2024-02-26T02:58:48;8.50;95.50
292;DHT22;23311;48.776;9.162;2024-02-26T03:01:16;8.50;95.50
292;DHT22;23311;48.776;9.162;2024-02-26T03:03:44;8.50;95.50
292;DHT22;23311;48.776;9.162;2024-02-26T03:06:12;8.50;95.50
292;DHT22;23311;48.776;9.162;2024-02-26T03:08:40;8.40;95.50
292;DHT22;23311;48.776;9.162;2024-02-26T03:11:13;8.40;95.50
292;DHT22;23311;48.776;9.162;2024-02-26T03:13:43;8.30;95.50
292;DHT22;23311;48.776;9.162;2024-02-26T03:16:12;8.20;95.50
292;DHT22;23311;48.776;9.162;2024-02-26T03:18:40;8.20;95.50
292;DHT22;23311;48.776;9.162;2024-02-26T03:21:09;8.20;95.50
292;DHT22;23311;48.776;9.162;2024-02-26T03:23:38;8.20;95.50
292;DHT22;23311;48.776;9.162;2024-02-26T03:26:06;8.30;95.50
292;DHT22;23311;48.776;9.162;2024-02-26T03:28:35;8.30;95.50
292;DHT22;23311;48.776;9.162;2024-02-26T03:31:05;8.30;95.50
292;DHT22;23311;48.776;9.162;2024-02-26T03:33:34;8.40;95.50
292;DHT22;23311;48.776;9.162;2024-02-26T03:36:03;8.40;95.50
292;DHT22;23311;48.776;9.162;2024-02-26T03:38:31;8.40;95.50
292;DHT22;23311;48.776;9.162;2024-02-26T03:41:00;8.40;95.50
292;DHT22;23311;48.776;9.162;2024-02-26T03:43:28;8.30;95.50
292;DHT22;23311;48.776;9.162;2024-02-26T03:45:56;8.30;95.50
292;DHT22;23311;48.776;9.162;2024-02-26T03:48:26;8.10;95.50
292;DHT22;23311;48.776;9.162;2024-02-26T03:50:54;8.10;95.50
292;DHT22;23311;48.776;9.162;2024-02-26T03:53:22;8.00;95.50
292;DHT22;23311;48.776;9.162;2024-02-26T03:55:51;7.90;95.50
292;DHT22;23311;48.776;9.162;2024-02-26T03:58:19;8.00;95.50
292;DHT22;23311;48.776;9.162;2024-02-26T04:00:47;8.10;95.50
292;DHT22;23311;48.776;9.162;2024-02-26T04:03:16;8.10;95.50
292;DHT22;23311;48.776;9.162;2024-02-26T04:05:45;8.20;95.50
292;DHT22;23311;48.776;9.162;2024-02-26T04:08:14;8.20;95.50
292;DHT22;23311;48.776;9.162;2024-02-26T04:10:43;8.10;95.50
292;DHT22;23311;48.776;9.162;2024-02-26T04:13:11;8.10;95.50
292;DHT22;23311;48.776;9.162;2024-02-26T04:15:39;8.10;95.50
292;DHT22;23311;48.776;9.162;2024-02-26T04:18:07;8.00;95.50
292;DHT22;23311;48.776;9.162;2024-02-26T04:20:36;7.90;95.50
292;DHT22;23311;48.776;9.162;2024-02-26T04:23:05;7.80;95.50
292;DHT22;23311;48.776;9.162;2024-02-26T04:25:34;7.80;95.50
292;DHT22;23311;48.776;9.162;2024-02-26T04:28:02;7.80;95.50
292;DHT22;23311;48.776;9.162;2024-02-26T04:30:31;7.70;95.50
292;DHT22;23311;48.776;9.162;2024-02-26T04:32:59;7.80;95.50
292;DHT22;23311;48.776;9.162;2024-02-26T04:35:28;7.80;95.50
292;DHT22;23311;48.776;9.162;2024-02-26T04:37:56;7.90;95.50
292;DHT22;23311;48.776;9.162;2024-02-26T04:40:26;7.80;95.50
292;DHT22;23311;48.776;9.162;2024-02-26T04:42:55;7.80;95.50
292;DHT22;23311;48.776;9.162;2024-02-26T04:45:24;7.70;95.50
292;DHT22;23311;48.776;9.162;2024-02-26T04:47:52;7.90;95.50
292;DHT22;23311;48.776;9.162;2024-02-26T04:50:20;7.90;95.50
292;DHT22;23311;48.776;9.162;2024-02-26T04:52:48;7.90;95.50
292;DHT22;23311;48.776;9.162;2024-02-26T04:55:16;7.90;95.50
292;DHT22;23311;48.776;9.162;2024-02-26T04:57:45;7.90;95.50
292;DHT22;23311;48.776;9.162;2024-02-26T05:00:14;8.00;95.50
292;DHT22;23311;48.776;9.162;2024-02-26T05:02:43;8.00;95.50
292;DHT22;23311;48.776;9.162;2024-02-26T05:05:11;8.00;95.50
292;DHT22;23311;48.776;9.162;2024-02-26T05:07:40;7.90;95.50
292;DHT22;23311;48.776;9.162;2024-02-26T05:10:10;7.90;95.50
292;DHT22;23311;48.776;9.162;2024-02-26T05:12:38;8.10;95.50
292;DHT22;23311;48.776;9.162;2024-02-26T05:15:11;8.10;95.50
292;DHT22;23311;48.776;9.162;2024-02-26T05:17:45;8.10;95.50
292;DHT22;23311;48.776;9.162;2024-02-26T05:20:13;8.20;95.50
292;DHT22;23311;48.776;9.162;2024-02-26T05:22:42;8.20;95.50
292;DHT22;23311;48.776;9.162;2024-02-26T05:25:10;8.10;95.50
292;DHT22;23311;48.776;9.162;2024-02-26T05:27:39;8.10;95.50
292;DHT22;23311;48.776;9.162;2024-02-26T05:30:08;8.10;95.50
292;DHT22;23311;48.776;9.162;2024-02-26T05:32:37;8.00;95.50
292;DHT22;23311;48.776;9.162;2024-02-26T05:35:07;8.10;95.50
292;DHT22;23311;48.776;9.162;2024-02-26T05:37:35;8.10;95.50
292;DHT22;23311;48.776;9.162;2024-02-26T05:40:04;8.10;95.50
292;DHT22;23311;48.776;9.162;2024-02-26T05:42:33;8.00;95.50
292;DHT22;23311;48.776;9.162;2024-02-26T05:45:01;8.00;95.50
292;DHT22;23311;48.776;9.162;2024-02-26T05:47:33;8.00;95.50
292;DHT22;23311;48.776;9.162;2024-02-26T05:50:03;7.90;95.50
292;DHT22;23311;48.776;9.162;2024-02-26T05:52:32;7.70;95.50
292;DHT22;23311;48.776;9.162;2024-02-26T05:55:00;7.60;95.50
292;DHT22;23311;48.776;9.162;2024-02-26T05:57:28;7.50;95.50
292;DHT22;23311;48.776;9.162;2024-02-26T05:59:56;7.30;95.50
292;DHT22;23311;48.776;9.162;2024-02-26T06:02:28;7.20;95.50
292;DHT22;23311;48.776;9.162;2024-02-26T06:04:56;7.00;95.50
292;DHT22;23311;48.776;9.162;2024-02-26T06:07:25;7.00;95.50
292;DHT22;23311;48.776;9.162;2024-02-26T06:09:54;6.90;95.50
292;DHT22;23311;48.776;9.162;2024-02-26T06:12:22;6.90;95.50
292;DHT22;23311;48.776;9.162;2024-02-26T06:14:50;6.80;95.50
292;DHT22;23311;48.776;9.162;2024-02-26T06:17:40;6.60;95.50
292;DHT22;23311;48.776;9.162;2024-02-26T06:20:09;6.40;95.50
292;DHT22;23311;48.776;9.162;2024-02-26T06:22:41;6.30;95.50
292;DHT22;23311;48.776;9.162;2024-02-26T06:25:10;6.30;95.50
292;DHT22;23311;48.776;9.162;2024-02-26T06:27:38;6.20;95.50
292;DHT22;23311;48.776;9.162;2024-02-26T06:30:07;6.20;95.50
292;DHT22;23311;48.776;9.162;2024-02-26T06:32:35;6.20;95.50
292;DHT22;23311;48.776;9.162;2024-02-26T06:35:04;6.30;95.50
292;DHT22;23311;48.776;9.162;2024-02-26T06:37:34;6.50;95.50
292;DHT22;23311;48.776;9.162;2024-02-26T06:40:06;6.60;95.50
292;DHT22;23311;48.776;9.162;2024-02-26T06:42:34;6.60;95.50
292;DHT22;23311;48.776;9.162;2024-02-26T06:45:04;6.50;95.50
292;DHT22;23311;48.776;9.162;2024-02-26T06:47:34;6.50;95.50
292;DHT22;23311;48.776;9.162;2024-02-26T06:50:03;6.50;95.50
292;DHT22;23311;48.776;9.162;2024-02-26T06:52:31;6.50;95.50
292;DHT22;23311;48.776;9.162;2024-02-26T06:55:00;6.70;95.50
292;DHT22;23311;48.776;9.162;2024-02-26T06:57:29;6.80;95.50
292;DHT22;23311;48.776;9.162;2024-02-26T06:59:58;6.90;95.50
292;DHT22;23311;48.776;9.162;2024-02-26T07:02:26;7.00;95.50
292;DHT22;23311;48.776;9.162;2024-02-26T07:04:54;7.10;95.50
292;DHT22;23311;48.776;9.162;2024-02-26T07:07:25;7.30;95.50
292;DHT22;23311;48.776;9.162;2024-02-26T07:09:53;7.30;95.50
292;DHT22;23311;48.776;9.162;2024-02-26T07:12:21;7.30;95.50
292;DHT22;23311;48.776;9.162;2024-02-26T07:14:51;7.40;95.50
292;DHT22;23311;48.776;9.162;2024-02-26T07:17:19;7.50;95.50
292;DHT22;23311;48.776;9.162;2024-02-26T07:19:47;7.60;95.50
292;DHT22;23311;48.776;9.162;2024-02-26T07:22:15;7.60;95.50
292;DHT22;23311;48.776;9.162;2024-02-26T07:24:43;7.70;95.50
292;DHT22;23311;48.776;9.162;2024-02-26T07:27:12;7.80;95.50
292;DHT22;23311;48.776;9.162;2024-02-26T07:29:40;7.90;95.50
292;DHT22;23311;48.776;9.162;2024-02-26T07:32:10;7.90;95.50
292;DHT22;23311;48.776;9.162;2024-02-26T07:34:38;8.00;95.50
292;DHT22;23311;48.776;9.162;2024-02-26T07:37:08;8.10;95.50
292;DHT22;23311;48.776;9.162;2024-02-26T07:39:36;8.10;95.50
292;DHT22;23311;48.776;9.162;2024-02-26T07:42:05;8.20;95.50
292;DHT22;23311;48.776;9.162;2024-02-26T07:44:33;8.20;95.50
292;DHT22;23311;48.776;9.162;2024-02-26T07:47:02;8.30;95.50
292;DHT22;23311;48.776;9.162;2024-02-26T07:49:31;8.40;95.50
292;DHT22;23311;48.776;9.162;2024-02-26T07:52:05;8.50;95.50
292;DHT22;23311;48.776;9.162;2024-02-26T07:54:33;8.60;95.50
292;DHT22;23311;48.776;9.162;2024-02-26T07:57:01;8.70;95.50
292;DHT22;23311;48.776;9.162;2024-02-26T07:59:32;8.90;95.50
292;DHT22;23311;48.776;9.162;2024-02-26T08:02:00;8.90;95.50
292;DHT22;23311;48.776;9.162;2024-02-26T08:04:31;8.90;95.50
292;DHT22;23311;48.776;9.162;2024-02-26T08:06:59;9.00;95.50
292;DHT22;23311;48.776;9.162;2024-02-26T08:09:27;9.10;95.50
292;DHT22;23311;48.776;9.162;2024-02-26T08:11:55;9.30;95.50
292;DHT22;23311;48.776;9.162;2024-02-26T08:14:24;9.50;95.50
292;DHT22;23311;48.776;9.162;2024-02-26T08:16:52;9.70;95.50
292;DHT22;23311;48.776;9.162;2024-02-26T08:19:20;9.70;95.50
292;DHT22;23311;48.776;9.162;2024-02-26T08:21:50;9.70;95.50
292;DHT22;23311;48.776;9.162;2024-02-26T08:24:18;9.60;95.50
292;DHT22;23311;48.776;9.162;2024-02-26T08:26:46;9.70;95.50
292;DHT22;23311;48.776;9.162;2024-02-26T08:29:14;9.70;95.50
292;DHT22;23311;48.776;9.162;2024-02-26T08:31:43;9.80;95.50
292;DHT22;23311;48.776;9.162;2024-02-26T08:34:11;9.80;95.50
292;DHT22;23311;48.776;9.162;2024-02-26T08:36:39;9.70;95.50
292;DHT22;23311;48.776;9.162;2024-02-26T08:39:11;9.80;95.50
292;DHT22;23311;48.776;9.162;2024-02-26T08:41:41;9.90;95.50
292;DHT22;23311;48.776;9.162;2024-02-26T08:44:09;9.90;95.50
292;DHT22;23311;48.776;9.162;2024-02-26T08:46:37;10.00;95.50
292;DHT22;23311;48.776;9.162;2024-02-26T08:49:05;10.10;95.50
292;DHT22;23311;48.776;9.162;2024-02-26T08:51:33;10.20;95.50
292;DHT22;23311;48.776;9.162;2024-02-26T08:54:00;10.20;95.50
292;DHT22;23311;48.776;9.162;2024-02-26T08:56:30;10.20;95.50
292;DHT22;23311;48.776;9.162;2024-02-26T08:58:58;10.50;95.50
292;DHT22;23311;48.776;9.162;2024-02-26T09:01:31;10.60;95.50
292;DHT22;23311;48.776;9.162;2024-02-26T09:03:59;10.80;95.50
292;DHT22;23311;48.776;9.162;2024-02-26T09:06:28;10.90;95.50
292;DHT22;23311;48.776;9.162;2024-02-26T09:08:56;10.90;95.50
292;DHT22;23311;48.776;9.162;2024-02-26T09:11:29;10.90;95.50
292;DHT22;23311;48.776;9.162;2024-02-26T09:13:58;11.00;95.50
292;DHT22;23311;48.776;9.162;2024-02-26T09:16:26;10.90;95.50
292;DHT22;23311;48.776;9.162;2024-02-26T09:18:54;10.90;95.50
292;DHT22;23311;48.776;9.162;2024-02-26T09:21:22;11.10;95.50
292;DHT22;23311;48.776;9.162;2024-02-26T09:23:52;11.30;95.50
292;DHT22;23311;48.776;9.162;2024-02-26T09:26:21;11.20;95.50
292;DHT22;23311;48.776;9.162;2024-02-26T09:28:50;11.20;95.50
292;DHT22;23311;48.776;9.162;2024-02-26T09:31:19;11.30;95.50
292;DHT22;23311;48.776;9.162;2024-02-26T09:33:47;11.30;95.50
292;DHT22;23311;48.776;9.162;2024-02-26T09:36:15;11.40;95.50
292;DHT22;23311;48.776;9.162;2024-02-26T09:38:43;11.30;95.50
292;DHT22;23311;48.776;9.162;2024-02-26T09:41:27;11.00;95.50
292;DHT22;23311;48.776;9.162;2024-02-26T09:43:58;10.90;95.50
292;DHT22;23311;48.776;9.162;2024-02-26T09:46:26;10.90;95.50
292;DHT22;23311;48.776;9.162;2024-02-26T09:48:55;10.80;95.50
292;DHT22;23311;48.776;9.162;2024-02-26T09:51:24;10.80;95.50
292;DHT22;23311;48.776;9.162;2024-02-26T09:53:53;11.20;95.50
292;DHT22;23311;48.776;9.162;2024-02-26T09:56:22;11.40;95.50
292;DHT22;23311;48.776;9.162;2024-02-26T09:58:51;11.90;95.50
292;DHT22;23311;48.776;9.162;2024-02-26T10:01:22;12.20;95.50
292;DHT22;23311;48.776;9.162;2024-02-26T10:03:55;12.50;94.50
292;DHT22;23311;48.776;9.162;2024-02-26T10:06:25;12.90;93.20
292;DHT22;23311;48.776;9.162;2024-02-26T10:08:54;13.00;92.50
292;DHT22;23311;48.776;9.162;2024-02-26T10:11:25;12.60;93.10
292;DHT22;23311;48.776;9.162;2024-02-26T10:13:55;12.80;93.30
292;DHT22;23311;48.776;9.162;2024-02-26T10:16:24;13.00;93.30
292;DHT22;23311;48.776;9.162;2024-02-26T10:18:53;13.10;92.70
292;DHT22;23311;48.776;9.162;2024-02-26T10:21:26;13.00;92.50
292;DHT22;23311;48.776;9.162;2024-02-26T10:23:54;13.10;92.70
292;DHT22;23311;48.776;9.162;2024-02-26T10:26:22;13.10;90.40
292;DHT22;23311;48.776;9.162;2024-02-26T10:28:50;13.50;90.40
292;DHT22;23311;48.776;9.162;2024-02-26T10:31:21;13.80;89.60
292;DHT22;23311;48.776;9.162;2024-02-26T10:33:55;13.90;89.30
292;DHT22;23311;48.776;9.162;2024-02-26T10:36:26;13.80;90.20
292;DHT22;23311;48.776;9.162;2024-02-26T10:39:14;14.10;89.70
292;DHT22;23311;48.776;9.162;2024-02-26T10:41:43;14.20;90.00
292;DHT22;23311;48.776;9.162;2024-02-26T10:44:12;14.50;89.00
292;DHT22;23311;48.776;9.162;2024-02-26T10:46:46;13.40;90.10
292;DHT22;23311;48.776;9.162;2024-02-26T10:49:17;13.60;90.10
292;DHT22;23311;48.776;9.162;2024-02-26T10:51:53;13.30;90.70
292;DHT22;23311;48.776;9.162;2024-02-26T10:54:24;13.60;90.50
292;DHT22;23311;48.776;9.162;2024-02-26T10:56:54;13.80;90.00
292;DHT22;23311;48.776;9.162;2024-02-26T10:59:25;13.80;89.00
292;DHT22;23311;48.776;9.162;2024-02-26T11:01:54;13.50;89.50
292;DHT22;23311;48.776;9.162;2024-02-26T11:04:24;13.50;90.30
292;DHT22;23311;48.776;9.162;2024-02-26T11:06:57;13.10;90.80
292;DHT22;23311;48.776;9.162;2024-02-26T11:09:26;13.50;90.50
292;DHT22;23311;48.776;9.162;2024-02-26T11:11:57;13.90;89.70
292;DHT22;23311;48.776;9.162;2024-02-26T11:14:26;14.10;88.80
292;DHT22;23311;48.776;9.162;2024-02-26T11:16:58;14.10;88.90
292;DHT22;23311;48.776;9.162;2024-02-26T11:22:03;15.50;86.00
292;DHT22;23311;48.776;9.162;2024-02-26T11:24:47;15.60;84.00
292;DHT22;23311;48.776;9.162;2024-02-26T11:27:17;14.70;85.60
292;DHT22;23311;48.776;9.162;2024-02-26T11:29:48;14.30;86.60
292;DHT22;23311;48.776;9.162;2024-02-26T11:32:18;13.90;87.80
292;DHT22;23311;48.776;9.162;2024-02-26T11:34:47;14.00;87.70
292;DHT22;23311;48.776;9.162;2024-02-26T11:37:19;13.80;87.50
292;DHT22;23311;48.776;9.162;2024-02-26T11:39:48;13.70;88.40
292;DHT22;23311;48.776;9.162;2024-02-26T11:42:23;13.60;88.90
292;DHT22;23311;48.776;9.162;2024-02-26T11:44:52;14.10;87.90
292;DHT22;23311;48.776;9.162;2024-02-26T11:47:22;14.20;87.40
292;DHT22;23311;48.776;9.162;2024-02-26T11:49:51;14.20;87.50
292;DHT22;23311;48.776;9.162;2024-02-26T11:52:20;14.20;87.10
292;DHT22;23311;48.776;9.162;2024-02-26T11:54:49;14.40;87.00
292;DHT22;23311;48.776;9.162;2024-02-26T11:57:25;14.60;86.80
292;DHT22;23311;48.776;9.162;2024-02-26T11:59:55;14.80;86.40
292;DHT22;23311;48.776;9.162;2024-02-26T12:02:41;14.80;86.00
292;DHT22;23311;48.776;9.162;2024-02-26T12:05:12;14.90;85.90
292;DHT22;23311;48.776;9.162;2024-02-26T12:07:43;15.00;86.00
292;DHT22;23311;48.776;9.162;2024-02-26T12:10:24;15.00;85.40
292;DHT22;23311;48.776;9.162;2024-02-26T12:12:54;14.70;86.50
292;DHT22;23311;48.776;9.162;2024-02-26T12:15:27;14.80;86.70
292;DHT22;23311;48.776;9.162;2024-02-26T12:17:58;14.80;86.60
292;DHT22;23311;48.776;9.162;2024-02-26T12:20:30;14.30;86.90
292;DHT22;23311;48.776;9.162;2024-02-26T12:22:58;14.10;87.70
292;DHT22;23311;48.776;9.162;2024-02-26T12:27:56;14.40;88.30
292;DHT22;23311;48.776;9.162;2024-02-26T12:30:25;14.40;87.80
292;DHT22;23311;48.776;9.162;2024-02-26T12:32:54;14.60;88.30
292;DHT22;23311;48.776;9.162;2024-02-26T12:35:24;14.60;87.40
292;DHT22;23311;48.776;9.162;2024-02-26T12:37:55;14.40;87.80
292;DHT22;23311;48.776;9.162;2024-02-26T12:40:23;14.50;88.20
292;DHT22;23311;48.776;9.162;2024-02-26T12:42:53;14.60;88.40
292;DHT22;23311;48.776;9.162;2024-02-26T12:45:22;15.00;87.50
292;DHT22;23311;48.776;9.162;2024-02-26T12:47:50;14.90;87.20
292;DHT22;23311;48.776;9.162;2024-02-26T12:50:18;15.40;87.20
292;DHT22;23311;48.776;9.162;2024-02-26T12:55:20;16.70;83.80
292;DHT22;23311;48.776;9.162;2024-02-26T12:57:49;16.40;84.00
292;DHT22;23311;48.776;9.162;2024-02-26T13:00:21;16.50;83.60
292;DHT22;23311;48.776;9.162;2024-02-26T13:02:50;16.10;83.90
292;DHT22;23311;48.776;9.162;2024-02-26T13:05:19;15.80;84.80
292;DHT22;23311;48.776;9.162;2024-02-26T13:07:47;15.80;85.10
292;DHT22;23311;48.776;9.162;2024-02-26T13:10:17;15.90;85.30
292;DHT22;23311;48.776;9.162;2024-02-26T13:12:47;16.10;84.70
292;DHT22;23311;48.776;9.162;2024-02-26T13:15:18;16.30;83.90
292;DHT22;23311;48.776;9.162;2024-02-26T13:17:48;16.30;84.40
292;DHT22;23311;48.776;9.162;2024-02-26T13:20:26;16.10;84.60
292;DHT22;23311;48.776;9.162;2024-02-26T13:23:02;16.10;84.50
292;DHT22;23311;48.776;9.162;2024-02-26T13:25:34;16.20;84.50
292;DHT22;23311;48.776;9.162;2024-02-26T13:28:07;16.00;84.60
292;DHT22;23311;48.776;9.162;2024-02-26T13:33:09;16.10;84.30
292;DHT22;23311;48.776;9.162;2024-02-26T13:35:37;16.30;83.60
292;DHT22;23311;48.776;9.162;2024-02-26T13:38:07;16.30;83.40
292;DHT22;23311;48.776;9.162;2024-02-26T13:40:36;16.10;83.40
292;DHT22;23311;48.776;9.162;2024-02-26T13:43:06;16.10;83.30
292;DHT22;23311;48.776;9.162;2024-02-26T13:45:35;16.20;83.00
292;DHT22;23311;48.776;9.162;2024-02-26T13:48:06;16.30;82.70
292;DHT22;23311;48.776;9.162;2024-02-26T13:50:34;16.30;82.40
292;DHT22;23311;48.776;9.162;2024-02-26T13:53:03;16.20;82.00
292;DHT22;23311;48.776;9.162;2024-02-26T13:55:31;16.10;82.20
292;DHT22;23311;48.776;9.162;2024-02-26T13:58:01;16.00;82.60
292;DHT22;23311;48.776;9.162;2024-02-26T14:00:29;16.00;83.00
292;DHT22;23311;48.776;9.162;2024-02-26T14:03:01;16.10;83.10
292;DHT22;23311;48.776;9.162;2024-02-26T14:05:31;16.00;83.30
292;DHT22;23311;48.776;9.162;2024-02-26T14:07:59;15.80;84.10
292;DHT22;23311;48.776;9.162;2024-02-26T14:10:29;15.90;84.50
292;DHT22;23311;48.776;9.162;2024-02-26T14:13:00;16.00;84.60
292;DHT22;23311;48.776;9.162;2024-02-26T14:15:29;15.90;85.10
292;DHT22;23311;48.776;9.162;2024-02-26T14:18:00;15.80;85.10
292;DHT22;23311;48.776;9.162;2024-02-26T14:20:50;15.80;85.60
292;DHT22;23311;48.776;9.162;2024-02-26T14:23:18;15.70;85.60
292;DHT22;23311;48.776;9.162;2024-02-26T14:25:47;15.40;86.00
292;DHT22;23311;48.776;9.162;2024-02-26T14:28:16;15.30;86.70
292;DHT22;23311;48.776;9.162;2024-02-26T14:30:51;15.30;86.70
292;DHT22;23311;48.776;9.162;2024-02-26T14:33:20;15.30;87.00
292;DHT22;23311;48.776;9.162;2024-02-26T14:35:49;15.30;87.20
292;DHT22;23311;48.776;9.162;2024-02-26T14:38:18;15.30;87.20
292;DHT22;23311;48.776;9.162;2024-02-26T14:40:47;15.30;85.60
292;DHT22;23311;48.776;9.162;2024-02-26T14:43:16;15.30;86.00
292;DHT22;23311;48.776;9.162;2024-02-26T14:45:45;15.10;86.70
292;DHT22;23311;48.776;9.162;2024-02-26T14:48:13;15.00;87.30
292;DHT22;23311;48.776;9.162;2024-02-26T14:50:42;15.00;87.30
292;DHT22;23311;48.776;9.162;2024-02-26T14:53:11;14.80;86.20
292;DHT22;23311;48.776;9.162;2024-02-26T14:55:39;14.70;87.10
292;DHT22;23311;48.776;9.162;2024-02-26T14:58:09;14.60;88.40
292;DHT22;23311;48.776;9.162;2024-02-26T15:00:40;14.60;89.40
292;DHT22;23311;48.776;9.162;2024-02-26T15:03:08;14.60;89.40
292;DHT22;23311;48.776;9.162;2024-02-26T15:05:37;14.70;89.30
292;DHT22;23311;48.776;9.162;2024-02-26T15:08:05;14.80;89.30
292;DHT22;23311;48.776;9.162;2024-02-26T15:10:36;14.80;88.90
292;DHT22;23311;48.776;9.162;2024-02-26T15:13:04;14.80;89.00
292;DHT22;23311;48.776;9.162;2024-02-26T15:15:36;14.70;89.30
292;DHT22;23311;48.776;9.162;2024-02-26T15:18:05;14.60;86.50
292;DHT22;23311;48.776;9.162;2024-02-26T15:20:35;14.50;85.80
292;DHT22;23311;48.776;9.162;2024-02-26T15:23:03;14.50;85.90
292;DHT22;23311;48.776;9.162;2024-02-26T15:25:32;14.50;86.00
292;DHT22;23311;48.776;9.162;2024-02-26T15:28:00;14.50;85.90
292;DHT22;23311;48.776;9.162;2024-02-26T15:30:29;14.40;86.10
292;DHT22;23311;48.776;9.162;2024-02-26T15:32:58;14.40;86.00
292;DHT22;23311;48.776;9.162;2024-02-26T15:35:28;14.40;84.80
292;DHT22;23311;48.776;9.162;2024-02-26T15:37:56;14.30;85.00
292;DHT22;23311;48.776;9.162;2024-02-26T15:40:25;14.20;85.00
292;DHT22;23311;48.776;9.162;2024-02-26T15:42:53;14.20;85.30
292;DHT22;23311;48.776;9.162;2024-02-26T15:45:22;14.10;85.40
292;DHT22;23311;48.776;9.162;2024-02-26T15:47:51;14.10;85.80
292;DHT22;23311;48.776;9.162;2024-02-26T15:50:21;14.00;86.30
292;DHT22;23311;48.776;9.162;2024-02-26T15:52:50;14.00;86.70
292;DHT22;23311;48.776;9.162;2024-02-26T15:55:19;13.90;87.20
292;DHT22;23311;48.776;9.162;2024-02-26T15:57:48;13.90;87.80
292;DHT22;23311;48.776;9.162;2024-02-26T16:00:17;13.90;88.20
292;DHT22;23311;48.776;9.162;2024-02-26T16:02:47;13.80;88.70
292;DHT22;23311;48.776;9.162;2024-02-26T16:05:17;13.80;89.10
292;DHT22;23311;48.776;9.162;2024-02-26T16:07:52;13.80;89.50
292;DHT22;23311;48.776;9.162;2024-02-26T16:12:58;13.70;90.50
292;DHT22;23311;48.776;9.162;2024-02-26T16:15:28;13.60;91.10
292;DHT22;23311;48.776;9.162;2024-02-26T16:17:57;13.50;91.50
292;DHT22;23311;48.776;9.162;2024-02-26T16:20:26;13.50;92.20
292;DHT22;23311;48.776;9.162;2024-02-26T16:22:58;13.40;93.10
292;DHT22;23311;48.776;9.162;2024-02-26T16:25:31;13.30;93.50
292;DHT22;23311;48.776;9.162;2024-02-26T16:28:01;13.30;94.20
292;DHT22;23311;48.776;9.162;2024-02-26T16:30:29;13.20;94.70
292;DHT22;23311;48.776;9.162;2024-02-26T16:32:59;13.20;95.10
292;DHT22;23311;48.776;9.162;2024-02-26T16:35:28;13.10;95.30